Terminal Aerodrome Forecast
Issued by NWS Huntsville, AL

Home | Current Version | Previous Version | Text Only | Print | Product List | Glossary On
Versions: 1 2 3 4 5 6 7 8 9 10 11 12 13 14 15 16 17 18 19 20 21 22 23 24 25 26 27
000
FTUS44 KHUN 252320
TAFHSV
TAF
KHSV 252320Z 2600/2624 14007KT P6SM BKN100 OVC250
     FM261000 13008KT P6SM BKN025
     FM261500 17012G21KT P6SM VCTS BKN020CB OVC040
     FM261900 18012KT P6SM VCSH BKN030 OVC050=

USA.gov is the U.S. government's official web portal to all federal, state and local government web resources and services.